createdAt,value
2023-04-11T00:01:07.701Z,100500.88
2023-04-11T00:03:34.575Z,100504.78
2023-04-11T00:06:01.199Z,100496.94
2023-04-11T00:08:27.678Z,100487.81
2023-04-11T00:10:54.166Z,100489.31
2023-04-11T00:13:20.791Z,100489.31
2023-04-11T00:15:47.841Z,100499.25
2023-04-11T00:18:14.361Z,100481.38
2023-04-11T00:20:40.808Z,100490.03
2023-04-11T00:23:08.822Z,100489.63
2023-04-11T00:25:37.241Z,100477.38
2023-04-11T00:28:04.301Z,100484.81
2023-04-11T00:30:30.775Z,100495.13
2023-04-11T00:32:57.246Z,100495.06
2023-04-11T00:35:23.676Z,100495.09
2023-04-11T00:37:55.937Z,100493.53
2023-04-11T00:40:23.028Z,100488.03
2023-04-11T00:42:49.489Z,100491.56
2023-04-11T00:45:15.997Z,100499.16
2023-04-11T00:47:42.578Z,100489.91
2023-04-11T00:50:09.513Z,100493.88
2023-04-11T00:52:37.969Z,100494.47
2023-04-11T00:55:04.992Z,100507.91
2023-04-11T00:57:32.212Z,100490.94
2023-04-11T01:00:00.203Z,100483.00
2023-04-11T01:02:26.862Z,100487.75
2023-04-11T01:04:53.565Z,100485.44
2023-04-11T01:07:22.317Z,100488.56
2023-04-11T01:09:49.873Z,100478.31
2023-04-11T01:12:17.406Z,100490.06
2023-04-11T01:14:47.672Z,100483.78
2023-04-11T01:17:15.319Z,100495.25
2023-04-11T01:19:41.908Z,100487.72
2023-04-11T01:22:11.144Z,100477.50
2023-04-11T01:24:37.649Z,100483.72
2023-04-11T01:27:04.212Z,100479.44
2023-04-11T01:29:31.623Z,100476.63
2023-04-11T01:31:58.086Z,100481.81
2023-04-11T01:34:28.303Z,100471.53
2023-04-11T01:36:55.475Z,100479.00
2023-04-11T01:39:22.025Z,100471.09
2023-04-11T01:41:50.657Z,100479.41
2023-04-11T01:44:19.048Z,100477.38
2023-04-11T01:46:46.482Z,100474.28
2023-04-11T01:49:17.655Z,100469.19
2023-04-11T01:51:44.438Z,100483.00
2023-04-11T01:54:10.958Z,100479.53
2023-04-11T01:56:37.423Z,100471.13
2023-04-11T01:59:04.410Z,100476.69
2023-04-11T02:01:32.042Z,100476.69
2023-04-11T02:03:58.789Z,100475.19
2023-04-11T02:06:27.399Z,100477.44
2023-04-11T02:08:54.595Z,100481.06
2023-04-11T02:11:21.376Z,100489.03
2023-04-11T02:13:47.952Z,100491.75
2023-04-11T02:16:18.162Z,100487.88
2023-04-11T02:18:45.684Z,100505.72
2023-04-11T02:21:12.330Z,100505.66
2023-04-11T02:23:38.806Z,100505.66
2023-04-11T02:26:05.357Z,100504.91
2023-04-11T02:28:31.817Z,100501.72
2023-04-11T02:30:58.410Z,100507.75
2023-04-11T02:33:24.934Z,100509.22
2023-04-11T02:35:51.452Z,100505.31
2023-04-11T02:38:17.997Z,100512.53
2023-04-11T02:40:44.490Z,100497.41
2023-04-11T02:43:10.968Z,100500.63
2023-04-11T02:45:37.434Z,100501.03
2023-04-11T02:48:04.445Z,100505.41
2023-04-11T02:50:31.578Z,100507.81
2023-04-11T02:52:58.037Z,100506.19
2023-04-11T02:55:24.643Z,100508.56
2023-04-11T02:57:51.742Z,100510.53
2023-04-11T03:00:22.022Z,100514.91
2023-04-11T03:02:49.473Z,100512.59
2023-04-11T03:05:16.115Z,100522.00
2023-04-11T03:07:44.039Z,100522.84
2023-04-11T03:10:10.791Z,100515.31
2023-04-11T03:12:37.333Z,100514.09
2023-04-11T03:15:04.126Z,100511.38
2023-04-11T03:17:30.766Z,100521.59
2023-04-11T03:19:57.218Z,100518.84
2023-04-11T03:22:24.486Z,100522.00
2023-04-11T03:24:51.175Z,100520.44
2023-04-11T03:27:17.670Z,100536.28
2023-04-11T03:29:44.113Z,100535.53
2023-04-11T03:32:10.698Z,100528.88
2023-04-11T03:34:37.202Z,100517.28
2023-04-11T03:37:03.759Z,100521.25
2023-04-11T03:39:30.288Z,100516.13
2023-04-11T03:41:57.744Z,100525.25
2023-04-11T03:44:24.218Z,100518.97
2023-04-11T03:46:50.764Z,100530.44
2023-04-11T03:49:17.256Z,100530.81
2023-04-11T03:51:43.823Z,100532.41
2023-04-11T03:54:10.284Z,100532.00
2023-04-11T03:56:36.776Z,100529.28
2023-04-11T03:59:03.257Z,100537.97
2023-04-11T04:01:29.713Z,100537.56
2023-04-11T04:03:56.630Z,100538.00
2023-04-11T04:06:23.395Z,100539.53
2023-04-11T04:08:49.824Z,100546.28
2023-04-11T04:11:16.318Z,100562.47
2023-04-11T04:13:42.735Z,100547.44
2023-04-11T04:16:09.571Z,100558.91
2023-04-11T04:18:36.173Z,100554.53
2023-04-11T04:21:02.838Z,100557.69
2023-04-11T04:23:30.007Z,100568.44
2023-04-11T04:25:58.147Z,100556.53
2023-04-11T04:28:26.147Z,100566.00
2023-04-11T04:30:54.245Z,100573.94
2023-04-11T04:33:21.461Z,100569.25
2023-04-11T04:35:48.078Z,100577.19
2023-04-11T04:38:17.683Z,100591.78
2023-04-11T04:40:44.510Z,100585.44
2023-04-11T04:43:18.400Z,100585.47
2023-04-11T04:45:45.695Z,100579.94
2023-04-11T04:48:17.096Z,100571.66
2023-04-11T04:50:45.569Z,100580.78
2023-04-11T04:53:12.130Z,100585.50
2023-04-11T04:55:38.574Z,100579.97
2023-04-11T04:58:05.048Z,100578.41
2023-04-11T05:00:33.488Z,100587.09
2023-04-11T05:03:00.110Z,100602.53
2023-04-11T05:05:26.691Z,100606.09
2023-04-11T05:07:53.146Z,100621.50
2023-04-11T05:10:19.728Z,100632.94
2023-04-11T05:12:46.475Z,100612.38
2023-04-11T05:15:14.774Z,100609.63
2023-04-11T05:17:41.229Z,100611.59
2023-04-11T05:20:09.086Z,100615.94
2023-04-11T05:22:36.345Z,100614.72
2023-04-11T05:25:02.807Z,100617.84
2023-04-11T05:27:29.276Z,100629.69
2023-04-11T05:29:55.807Z,100628.94
2023-04-11T05:32:22.356Z,100630.53
2023-04-11T05:34:58.830Z,100626.59
2023-04-11T05:37:26.153Z,100636.84
2023-04-11T05:39:53.044Z,100640.41
2023-04-11T05:42:19.544Z,100637.66
2023-04-11T05:44:46.024Z,100636.06
2023-04-11T05:47:12.611Z,100652.25
2023-04-11T05:49:39.097Z,100652.28
2023-04-11T05:52:05.605Z,100647.94
2023-04-11T05:54:33.929Z,100648.34
2023-04-11T05:57:02.005Z,100659.38
2023-04-11T05:59:30.661Z,100674.78
2023-04-11T06:01:57.781Z,100681.47
2023-04-11T06:04:24.833Z,100673.16
2023-04-11T06:06:52.962Z,100669.53
2023-04-11T06:09:19.962Z,100671.47
2023-04-11T06:11:46.601Z,100687.97
2023-04-11T06:14:13.067Z,100684.03
2023-04-11T06:16:39.751Z,100688.78
2023-04-11T06:19:06.249Z,100691.91
2023-04-11T06:21:32.883Z,100692.72
2023-04-11T06:24:05.684Z,100696.25
2023-04-11T06:26:32.141Z,100708.91
2023-04-11T06:28:58.662Z,100691.94
2023-04-11T06:31:25.545Z,100706.59
2023-04-11T06:33:52.036Z,100716.09
2023-04-11T06:36:18.580Z,100718.09
2023-04-11T06:38:54.756Z,100708.66
2023-04-11T06:41:21.237Z,100726.03
2023-04-11T06:43:47.717Z,100721.34
2023-04-11T06:46:14.263Z,100736.38
2023-04-11T06:48:40.724Z,100724.53
2023-04-11T06:51:09.067Z,100713.47
2023-04-11T06:53:35.544Z,100725.00
2023-04-11T06:56:02.157Z,100728.16
2023-04-11T06:58:28.641Z,100739.63
2023-04-11T07:00:55.135Z,100735.66
2023-04-11T07:03:25.142Z,100749.91
2023-04-11T07:05:52.097Z,100757.38
2023-04-11T07:08:18.649Z,100764.06
2023-04-11T07:10:45.261Z,100761.75
2023-04-11T07:13:11.771Z,100760.16
2023-04-11T07:15:38.263Z,100770.03
2023-04-11T07:18:04.864Z,100766.50
2023-04-11T07:20:32.998Z,100780.31
2023-04-11T07:22:59.489Z,100766.88
2023-04-11T07:25:33.770Z,100774.38
2023-04-11T07:28:00.862Z,100787.81
2023-04-11T07:30:28.208Z,100778.34
2023-04-11T07:32:54.822Z,100783.44
2023-04-11T07:35:22.178Z,100778.34
2023-04-11T07:37:48.647Z,100782.25
2023-04-11T07:40:15.484Z,100778.31
2023-04-11T07:42:42.321Z,100784.63
2023-04-11T07:45:09.495Z,100788.19
2023-04-11T07:47:36.054Z,100790.16
2023-04-11T07:50:03.406Z,100786.22
2023-04-11T07:52:30.345Z,100794.53
2023-04-11T07:54:56.891Z,100781.06
2023-04-11T07:57:23.478Z,100782.63
2023-04-11T07:59:49.971Z,100784.97
2023-04-11T08:02:16.591Z,100794.88
2023-04-11T08:04:43.251Z,100793.72
2023-04-11T08:07:09.828Z,100784.53
2023-04-11T08:09:36.291Z,100804.66
2023-04-11T08:12:03.458Z,100808.25
2023-04-11T08:14:29.946Z,100809.00
2023-04-11T08:16:56.453Z,100816.13
2023-04-11T08:19:22.949Z,100813.34
2023-04-11T08:21:49.481Z,100815.03
2023-04-11T08:24:16.192Z,100813.78
2023-04-11T08:26:42.641Z,100820.09
2023-04-11T08:29:11.416Z,100802.28
2023-04-11T08:31:46.628Z,100818.13
2023-04-11T08:34:13.343Z,100807.41
2023-04-11T08:36:39.870Z,100807.41
2023-04-11T08:39:06.709Z,100810.56
2023-04-11T08:41:33.632Z,100820.88
2023-04-11T08:44:00.681Z,100826.44
2023-04-11T08:46:27.427Z,100806.97
2023-04-11T08:48:54.784Z,100806.22
2023-04-11T08:51:26.929Z,100819.19
2023-04-11T08:53:57.910Z,100826.72
2023-04-11T08:56:24.769Z,100825.13
2023-04-11T08:58:51.257Z,100801.72
2023-04-11T09:01:34.212Z,100836.84
2023-04-11T09:04:05.540Z,100846.78
2023-04-11T09:06:33.678Z,100836.34
2023-04-11T09:09:01.975Z,100841.44
2023-04-11T09:11:28.478Z,100837.34
2023-04-11T09:14:11.378Z,100848.09
2023-04-11T09:16:54.156Z,100830.34
2023-04-11T09:19:28.848Z,100835.63
2023-04-11T09:21:58.099Z,100827.00
2023-04-11T09:24:26.366Z,100823.97
2023-04-11T09:27:09.489Z,100832.81
2023-04-11T09:29:43.514Z,100846.81
2023-04-11T09:32:31.075Z,100829.97
2023-04-11T09:35:18.480Z,100843.06
2023-04-11T09:37:53.341Z,100833.22
2023-04-11T09:40:23.148Z,100820.50
2023-04-11T09:42:58.238Z,100842.75
2023-04-11T09:45:26.480Z,100837.66
2023-04-11T09:47:55.550Z,100834.38
2023-04-11T09:50:23.489Z,100851.50
2023-04-11T09:52:50.142Z,100851.47
2023-04-11T09:55:20.487Z,100855.81
2023-04-11T09:57:52.250Z,100855.47
2023-04-11T10:00:30.123Z,100860.16
2023-04-11T10:02:57.027Z,100832.78
2023-04-11T10:05:28.594Z,100839.75
2023-04-11T10:08:32.570Z,100848.44
2023-04-11T10:11:04.438Z,100842.88
2023-04-11T10:13:42.651Z,100845.84
2023-04-11T10:16:20.272Z,100851.00
2023-04-11T10:18:52.982Z,100850.97
2023-04-11T10:21:34.836Z,100858.63
2023-04-11T10:24:16.370Z,100863.22
2023-04-11T10:26:55.100Z,100849.03
2023-04-11T10:29:30.231Z,100873.91
2023-04-11T10:32:15.553Z,100859.19
2023-04-11T10:34:54.194Z,100853.44
2023-04-11T10:37:29.847Z,100857.66
2023-04-11T10:40:04.628Z,100855.59
2023-04-11T10:42:42.337Z,100876.72
2023-04-11T10:45:22.043Z,100870.78
2023-04-11T10:47:51.596Z,100864.44
2023-04-11T10:50:27.178Z,100859.69
2023-04-11T10:52:54.135Z,100862.47
2023-04-11T10:55:21.002Z,100863.31
2023-04-11T10:58:07.006Z,100876.25
2023-04-11T11:00:48.896Z,100864.41
2023-04-11T11:03:19.330Z,100884.69
2023-04-11T11:05:46.914Z,100888.81
2023-04-11T11:08:14.163Z,100883.72
2023-04-11T11:10:43.089Z,100883.41
2023-04-11T11:13:10.763Z,100895.84
2023-04-11T11:15:37.937Z,100878.94
2023-04-11T11:18:07.758Z,100895.28
2023-04-11T11:20:36.028Z,100906.59
2023-04-11T11:23:04.764Z,100901.56
2023-04-11T11:25:31.660Z,100885.81
2023-04-11T11:27:59.896Z,100888.97
2023-04-11T11:30:27.118Z,100885.31
2023-04-11T11:32:53.919Z,100887.94
2023-04-11T11:35:20.777Z,100896.50
2023-04-11T11:37:47.391Z,100891.50
2023-04-11T11:40:14.075Z,100886.84
2023-04-11T11:42:41.185Z,100884.22
2023-04-11T11:45:18.134Z,100881.91
2023-04-11T11:47:46.655Z,100889.44
2023-04-11T11:50:33.841Z,100882.78
2023-04-11T11:53:16.385Z,100888.31
2023-04-11T11:55:43.576Z,100900.94
2023-04-11T11:58:10.102Z,100901.03
2023-04-11T12:00:41.016Z,100907.59
2023-04-11T12:03:11.934Z,100900.09
2023-04-11T12:05:38.708Z,100904.47
2023-04-11T12:08:07.671Z,100903.03
2023-04-11T12:10:41.724Z,100902.84
2023-04-11T12:13:16.355Z,100909.31
2023-04-11T12:15:55.796Z,100901.94
2023-04-11T12:18:23.611Z,100886.41
2023-04-11T12:20:50.805Z,100901.00
2023-04-11T12:23:18.499Z,100899.09
2023-04-11T12:25:45.901Z,100897.84
2023-04-11T12:28:12.868Z,100898.75
2023-04-11T12:30:42.247Z,100902.06
2023-04-11T12:33:08.907Z,100903.38
2023-04-11T12:35:35.496Z,100906.22
2023-04-11T12:38:01.955Z,100911.44
2023-04-11T12:40:29.776Z,100907.50
2023-04-11T12:42:57.495Z,100896.47
2023-04-11T12:45:24.715Z,100916.63
2023-04-11T12:47:51.636Z,100900.09
2023-04-11T12:50:18.304Z,100904.31
2023-04-11T12:52:45.382Z,100909.31
2023-04-11T12:55:13.198Z,100909.22
2023-04-11T12:57:39.899Z,100911.22
2023-04-11T13:00:07.255Z,100910.19
2023-04-11T13:02:42.160Z,100917.47
2023-04-11T13:05:11.088Z,100922.38
2023-04-11T13:07:37.894Z,100915.56
2023-04-11T13:10:07.888Z,100916.13
2023-04-11T13:12:39.622Z,100908.63
2023-04-11T13:15:08.111Z,100925.69
2023-04-11T13:17:34.879Z,100912.91
2023-04-11T13:20:01.452Z,100922.25
2023-04-11T13:22:27.971Z,100924.50
2023-04-11T13:24:54.421Z,100919.38
2023-04-11T13:27:22.071Z,100924.09
2023-04-11T13:29:48.737Z,100927.31
2023-04-11T13:32:15.519Z,100920.59
2023-04-11T13:34:42.449Z,100921.09
2023-04-11T13:37:08.892Z,100913.81
2023-04-11T13:39:35.339Z,100932.03
2023-04-11T13:42:01.766Z,100922.78
2023-04-11T13:44:28.268Z,100925.13
2023-04-11T13:46:54.829Z,100925.56
2023-04-11T13:49:21.261Z,100941.13
2023-04-11T13:51:47.765Z,100917.16
2023-04-11T13:54:14.222Z,100930.66
2023-04-11T13:56:41.403Z,100921.41
2023-04-11T13:59:07.833Z,100924.25
2023-04-11T14:01:37.861Z,100909.69
2023-04-11T14:04:04.686Z,100920.50
2023-04-11T14:06:31.212Z,100908.44
2023-04-11T14:08:57.811Z,100909.75
2023-04-11T14:11:24.310Z,100910.00
2023-04-11T14:13:51.006Z,100910.69
2023-04-11T14:16:17.501Z,100906.56
2023-04-11T14:18:44.602Z,100913.84
2023-04-11T14:21:11.157Z,100916.03
2023-04-11T14:23:37.671Z,100914.91
2023-04-11T14:26:04.443Z,100905.28
2023-04-11T14:28:31.108Z,100895.84
2023-04-11T14:30:57.720Z,100891.38
2023-04-11T14:33:24.334Z,100885.53
2023-04-11T14:35:51.193Z,100897.72
2023-04-11T14:38:17.672Z,100887.59
2023-04-11T14:40:44.571Z,100883.72
2023-04-11T14:43:11.265Z,100880.66
2023-04-11T14:45:37.850Z,100884.56
2023-04-11T14:48:04.718Z,100887.63
2023-04-11T14:50:31.313Z,100882.66
2023-04-11T14:52:57.914Z,100883.91
2023-04-11T14:55:24.382Z,100873.47
2023-04-11T14:57:55.918Z,100866.88
2023-04-11T15:00:24.606Z,100879.22
2023-04-11T15:02:54.266Z,100880.44
2023-04-11T15:05:22.470Z,100873.91
2023-04-11T15:07:50.855Z,100867.66
2023-04-11T15:10:19.733Z,100870.56
2023-04-11T15:12:46.250Z,100870.41
2023-04-11T15:15:13.545Z,100868.66
2023-04-11T15:17:48.420Z,100870.59
2023-04-11T15:20:15.975Z,100864.09
2023-04-11T15:22:45.100Z,100866.41
2023-04-11T15:25:13.423Z,100858.78
2023-04-11T15:27:40.877Z,100858.31
2023-04-11T15:30:08.523Z,100862.44
2023-04-11T15:32:35.269Z,100860.13
2023-04-11T15:35:02.041Z,100868.41
2023-04-11T15:37:28.687Z,100855.09
2023-04-11T15:39:55.458Z,100850.25
2023-04-11T15:42:21.979Z,100855.91
2023-04-11T15:44:48.410Z,100845.59
2023-04-11T15:47:16.488Z,100852.69
2023-04-11T15:49:43.063Z,100844.22
2023-04-11T15:52:09.541Z,100832.78
2023-04-11T15:54:36.176Z,100835.22
2023-04-11T15:57:03.575Z,100837.59
2023-04-11T15:59:30.605Z,100832.44
2023-04-11T16:01:58.247Z,100839.09
2023-04-11T16:04:25.488Z,100840.13
2023-04-11T16:06:52.599Z,100839.25
2023-04-11T16:09:19.172Z,100839.69
2023-04-11T16:11:45.739Z,100826.16
2023-04-11T16:14:12.298Z,100824.59
2023-04-11T16:16:38.874Z,100815.94
2023-04-11T16:19:06.436Z,100811.28
2023-04-11T16:21:32.893Z,100824.97
2023-04-11T16:23:59.594Z,100823.25
2023-04-11T16:26:26.999Z,100818.72
2023-04-11T16:28:53.494Z,100815.38
2023-04-11T16:31:24.406Z,100809.44
2023-04-11T16:33:57.380Z,100806.78
2023-04-11T16:36:24.281Z,100809.34
2023-04-11T16:38:50.778Z,100808.06
2023-04-11T16:41:17.435Z,100807.19
2023-04-11T16:43:44.370Z,100800.16
2023-04-11T16:46:13.260Z,100802.69
2023-04-11T16:48:41.299Z,100804.84
2023-04-11T16:51:10.845Z,100801.06
2023-04-11T16:53:38.069Z,100800.34
2023-04-11T16:56:04.794Z,100804.88
2023-04-11T16:58:32.197Z,100812.19
2023-04-11T17:00:59.901Z,100808.38
2023-04-11T17:03:27.265Z,100809.66
2023-04-11T17:05:54.012Z,100806.09
2023-04-11T17:08:20.670Z,100812.97
2023-04-11T17:10:47.133Z,100814.06
2023-04-11T17:13:14.764Z,100806.59
2023-04-11T17:15:41.411Z,100804.03
2023-04-11T17:18:07.985Z,100801.38
2023-04-11T17:20:34.507Z,100808.41
2023-04-11T17:23:01.031Z,100802.41
2023-04-11T17:25:29.926Z,100803.50
2023-04-11T17:27:57.147Z,100805.41
2023-04-11T17:30:23.635Z,100799.72
2023-04-11T17:32:50.160Z,100807.06
2023-04-11T17:35:16.647Z,100798.53
2023-04-11T17:37:43.086Z,100798.88
2023-04-11T17:40:13.058Z,100798.69
2023-04-11T17:42:40.396Z,100799.72
2023-04-11T17:45:17.615Z,100791.91
2023-04-11T17:47:46.404Z,100790.19
2023-04-11T17:50:13.786Z,100775.97
2023-04-11T17:52:41.741Z,100788.88
2023-04-11T17:55:09.657Z,100794.59
2023-04-11T17:57:36.259Z,100785.41
2023-04-11T18:00:05.516Z,100779.94
2023-04-11T18:02:32.734Z,100782.31
2023-04-11T18:05:00.926Z,100783.94
2023-04-11T18:07:28.920Z,100790.72
2023-04-11T18:09:55.354Z,100779.59
2023-04-11T18:12:21.903Z,100781.22
2023-04-11T18:14:56.854Z,100781.69
2023-04-11T18:17:23.391Z,100776.22
2023-04-11T18:19:49.898Z,100771.09
2023-04-11T18:22:16.481Z,100775.22
2023-04-11T18:24:42.942Z,100775.59
2023-04-11T18:27:10.498Z,100779.28
2023-04-11T18:29:37.006Z,100774.06
2023-04-11T18:32:05.986Z,100780.56
2023-04-11T18:34:32.470Z,100770.69
2023-04-11T18:36:58.924Z,100763.66
2023-04-11T18:39:25.780Z,100780.41
2023-04-11T18:41:52.214Z,100778.06
2023-04-11T18:44:18.823Z,100775.25
2023-04-11T18:46:45.332Z,100771.75
2023-04-11T18:49:13.632Z,100773.00
2023-04-11T18:51:40.912Z,100776.69
2023-04-11T18:54:07.375Z,100783.78
2023-04-11T18:56:34.814Z,100775.88
2023-04-11T18:59:06.110Z,100778.34
2023-04-11T19:01:34.553Z,100780.34
2023-04-11T19:04:01.671Z,100774.41
2023-04-11T19:06:28.483Z,100776.03
2023-04-11T19:08:54.926Z,100770.88
2023-04-11T19:11:22.123Z,100752.78
2023-04-11T19:13:48.563Z,100769.44
2023-04-11T19:16:15.112Z,100760.72
2023-04-11T19:18:41.631Z,100765.91
2023-04-11T19:21:08.101Z,100762.00
2023-04-11T19:23:34.625Z,100757.66
2023-04-11T19:26:02.215Z,100756.84
2023-04-11T19:28:28.707Z,100754.13
2023-04-11T19:30:55.166Z,100748.56
2023-04-11T19:33:23.873Z,100750.94
2023-04-11T19:35:50.456Z,100744.28
2023-04-11T19:38:16.905Z,100749.88
2023-04-11T19:40:43.452Z,100738.84
2023-04-11T19:43:09.893Z,100734.16
2023-04-11T19:45:36.414Z,100735.41
2023-04-11T19:48:03.028Z,100741.00
2023-04-11T19:50:29.641Z,100740.25
2023-04-11T19:52:59.321Z,100730.72
2023-04-11T19:55:27.259Z,100732.81
2023-04-11T19:57:53.751Z,100725.66
2023-04-11T20:00:20.290Z,100720.56
2023-04-11T20:02:48.504Z,100716.63
2023-04-11T20:05:19.323Z,100717.44
2023-04-11T20:07:46.353Z,100719.06
2023-04-11T20:10:14.243Z,100714.72
2023-04-11T20:12:41.198Z,100711.16
2023-04-11T20:15:08.472Z,100690.66
2023-04-11T20:17:35.669Z,100693.41
2023-04-11T20:20:05.819Z,100689.09
2023-04-11T20:22:32.479Z,100682.72
2023-04-11T20:24:58.916Z,100688.31
2023-04-11T20:27:28.255Z,100675.63
2023-04-11T20:29:56.577Z,100661.81
2023-04-11T20:32:23.102Z,100666.94
2023-04-11T20:34:49.641Z,100654.69
2023-04-11T20:37:18.368Z,100665.78
2023-04-11T20:39:45.719Z,100649.97
2023-04-11T20:42:12.257Z,100642.06
2023-04-11T20:44:38.812Z,100640.09
2023-04-11T20:47:05.248Z,100643.63
2023-04-11T20:49:31.782Z,100637.31
2023-04-11T20:51:58.516Z,100640.09
2023-04-11T20:54:25.018Z,100638.88
2023-04-11T20:56:52.374Z,100637.72
2023-04-11T20:59:18.845Z,100630.56
2023-04-11T21:01:45.502Z,100628.59
2023-04-11T21:04:12.987Z,100620.25
2023-04-11T21:06:39.620Z,100619.84
2023-04-11T21:09:06.077Z,100623.03
2023-04-11T21:11:33.008Z,100608.38
2023-04-11T21:13:59.598Z,100616.28
2023-04-11T21:16:26.232Z,100611.09
2023-04-11T21:18:52.730Z,100607.50
2023-04-11T21:21:19.343Z,100608.25
2023-04-11T21:23:45.963Z,100595.59
2023-04-11T21:26:12.423Z,100594.78
2023-04-11T21:28:38.991Z,100593.19
2023-04-11T21:31:05.843Z,100584.88
2023-04-11T21:33:32.404Z,100591.19
2023-04-11T21:35:58.877Z,100575.44
2023-04-11T21:38:25.442Z,100576.19
2023-04-11T21:40:52.395Z,100568.25
2023-04-11T21:43:18.845Z,100568.59
2023-04-11T21:45:45.604Z,100567.88
2023-04-11T21:48:12.215Z,100571.03
2023-04-11T21:50:38.697Z,100561.09
2023-04-11T21:53:05.231Z,100558.31
2023-04-11T21:55:31.705Z,100563.09
2023-04-11T21:57:58.463Z,100557.97
2023-04-11T22:00:25.170Z,100554.41
2023-04-11T22:02:51.933Z,100547.31
2023-04-11T22:05:19.220Z,100548.13
2023-04-11T22:07:48.645Z,100531.47
2023-04-11T22:10:15.931Z,100535.44
2023-04-11T22:12:45.479Z,100533.03
2023-04-11T22:15:12.884Z,100535.44
2023-04-11T22:17:42.221Z,100527.47
2023-04-11T22:20:09.844Z,100524.31
2023-04-11T22:22:36.359Z,100521.09
2023-04-11T22:25:03.179Z,100510.81
2023-04-11T22:27:29.703Z,100510.84
2023-04-11T22:29:56.206Z,100505.28
2023-04-11T22:32:23.722Z,100506.03
2023-04-11T22:34:50.245Z,100502.50
2023-04-11T22:37:16.810Z,100495.75
2023-04-11T22:39:43.268Z,100487.00
2023-04-11T22:42:11.415Z,100488.97
2023-04-11T22:44:37.903Z,100472.31
2023-04-11T22:47:07.186Z,100473.88
2023-04-11T22:49:40.215Z,100469.91
2023-04-11T22:52:14.388Z,100458.44
2023-04-11T22:54:42.454Z,100453.66
2023-04-11T22:57:09.115Z,100450.53
2023-04-11T22:59:35.618Z,100443.44
2023-04-11T23:02:02.133Z,100442.22
2023-04-11T23:04:32.445Z,100437.97
2023-04-11T23:06:59.102Z,100441.19
2023-04-11T23:09:26.313Z,100440.31
2023-04-11T23:11:53.410Z,100433.94
2023-04-11T23:14:22.277Z,100430.41
2023-04-11T23:16:48.854Z,100425.34
2023-04-11T23:19:15.593Z,100427.31
2023-04-11T23:21:42.200Z,100415.50
2023-04-11T23:24:09.126Z,100411.88
2023-04-11T23:26:36.067Z,100412.31
2023-04-11T23:29:02.757Z,100405.97
2023-04-11T23:31:30.932Z,100394.50
2023-04-11T23:33:57.552Z,100374.72
2023-04-11T23:36:24.227Z,100365.19
2023-04-11T23:38:50.754Z,100364.38
2023-04-11T23:41:17.224Z,100358.50
2023-04-11T23:43:43.717Z,100358.06
2023-04-11T23:46:10.306Z,100347.38
2023-04-11T23:48:37.016Z,100341.84
2023-04-11T23:51:03.673Z,100332.31
2023-04-11T23:53:31.551Z,100335.81
2023-04-11T23:55:58.128Z,100322.38
2023-04-11T23:58:24.637Z,100320.84
